Time;durP1;ratioP1;P1;durP2;ratioP2;P2;SDS_P1;SDS_P2;PMS_P1;PMS_P2;Temp;Humidity;BMP_temperature;BMP_pressure;BME280_temperature;BME280_humidity;BME280_pressure;Samples;Min_cycle;Max_cycle;Signal;HPM_P1;HPM_P2
2022/04/13 00:00:33;;;;;;;9.98;6.78;;;;;;;11.78;48.85;99069.69;5072982;28;20048;-71
2022/04/13 00:03:00;;;;;;;8.50;6.55;;;;;;;11.73;48.95;99067.56;5056409;28;20078;-72
2022/04/13 00:05:26;;;;;;;9.65;6.78;;;;;;;11.70;49.17;99061.81;5089878;28;20130;-72
2022/04/13 00:07:54;;;;;;;9.20;6.82;;;;;;;11.77;49.20;99060.06;5039858;28;20101;-71
2022/04/13 00:10:20;;;;;;;10.15;6.85;;;;;;;11.64;49.16;99066.00;5089374;28;20050;-71
2022/04/13 00:12:46;;;;;;;12.57;6.90;;;;;;;11.67;49.21;99062.97;5056282;28;20066;-71
2022/04/13 00:15:13;;;;;;;9.85;7.05;;;;;;;11.65;49.22;99064.16;5056155;28;20135;-73
2022/04/13 00:17:39;;;;;;;10.00;6.38;;;;;;;11.62;49.19;99072.47;5056686;28;20055;-70
2022/04/13 00:20:07;;;;;;;10.07;7.43;;;;;;;11.78;49.14;99059.91;5072911;28;20047;-71
2022/04/13 00:22:34;;;;;;;9.57;6.55;;;;;;;11.64;49.14;99057.19;5072915;28;20420;-72
2022/04/13 00:25:00;;;;;;;10.55;6.85;;;;;;;11.63;49.37;99061.69;5089702;28;20052;-69
2022/04/13 00:27:26;;;;;;;10.25;7.38;;;;;;;11.79;49.01;99068.72;5072859;28;20058;-70
2022/04/13 00:29:53;;;;;;;7.90;6.43;;;;;;;11.77;48.61;99063.56;5056557;28;20044;-68
2022/04/13 00:32:20;;;;;;;10.27;6.93;;;;;;;11.73;48.82;99061.44;5056081;28;20035;-70
2022/04/13 00:34:46;;;;;;;7.93;6.38;;;;;;;11.67;49.12;99064.78;5055869;28;20040;-70
2022/04/13 00:37:12;;;;;;;9.48;6.63;;;;;;;11.63;48.88;99066.16;5090045;28;20050;-70
2022/04/13 00:39:39;;;;;;;9.57;6.25;;;;;;;11.71;49.03;99058.13;5039895;28;20075;-71
2022/04/13 00:42:06;;;;;;;10.95;6.32;;;;;;;11.74;49.11;99069.25;5072983;28;20040;-70
2022/04/13 00:44:36;;;;;;;8.85;6.53;;;;;;;11.71;49.04;99068.78;5072896;28;20393;-71
2022/04/13 00:47:06;;;;;;;8.23;6.15;;;;;;;11.88;48.80;99064.97;5106193;28;20047;-73
2022/04/13 00:49:36;;;;;;;8.52;6.32;;;;;;;11.77;48.85;99068.06;5089624;28;20131;-71
2022/04/13 00:52:05;;;;;;;9.55;6.18;;;;;;;11.74;49.06;99071.91;5073277;28;20093;-72
2022/04/13 00:54:32;;;;;;;8.02;6.15;;;;;;;11.61;49.00;99068.16;5072561;28;20047;-72
2022/04/13 00:56:59;;;;;;;7.60;5.72;;;;;;;11.64;48.82;99063.34;5055743;28;20044;-72
2022/04/13 00:59:27;;;;;;;9.38;6.05;;;;;;;11.50;48.95;99056.09;5057494;28;20044;-72
2022/04/13 01:01:58;;;;;;;7.50;6.20;;;;;;;11.59;49.29;99060.34;5059822;28;20489;-72
2022/04/13 01:04:28;;;;;;;6.85;5.60;;;;;;;11.55;49.20;99043.09;5077073;28;20047;-73
2022/04/13 01:06:55;;;;;;;8.50;6.13;;;;;;;11.49;49.10;99058.94;5093456;28;20044;-72
2022/04/13 01:09:23;;;;;;;7.50;5.88;;;;;;;11.61;49.13;99068.97;5043251;28;20044;-72
2022/04/13 01:11:49;;;;;;;6.28;5.40;;;;;;;11.52;48.89;99062.06;5076101;28;20044;-73
2022/04/13 01:14:15;;;;;;;8.75;5.70;;;;;;;11.58;48.64;99058.69;5076227;28;20097;-75
2022/04/13 01:16:41;;;;;;;8.00;5.70;;;;;;;11.57;48.80;99061.53;5043522;28;20134;-72
2022/04/13 01:19:07;;;;;;;7.97;6.20;;;;;;;11.61;48.87;99066.31;5059463;28;20044;-71
2022/04/13 01:21:42;;;;;;;7.97;6.53;;;;;;;11.80;48.58;99067.69;5059577;28;20417;-72
2022/04/13 01:24:10;;;;;;;7.55;5.90;;;;;;;11.62;48.78;99061.84;5109924;28;20056;-72
2022/04/13 01:26:38;;;;;;;7.57;5.97;;;;;;;11.57;48.79;99067.69;5059849;28;20469;-72
2022/04/13 01:29:05;;;;;;;8.30;5.80;;;;;;;11.60;48.85;99066.50;5093196;28;20075;-72
2022/04/13 01:31:32;;;;;;;9.02;5.80;;;;;;;11.64;48.72;99065.16;5076198;28;20408;-72
2022/04/13 01:33:59;;;;;;;8.82;5.82;;;;;;;11.53;48.74;99068.22;5092799;28;20040;-72
2022/04/13 01:36:26;;;;;;;10.30;5.63;;;;;;;11.53;48.87;99070.88;5075848;28;20044;-72
2022/04/13 01:38:52;;;;;;;8.60;5.25;;;;;;;11.46;48.74;99075.25;5075767;28;20043;-72
2022/04/13 01:41:18;;;;;;;7.95;5.60;;;;;;;11.43;49.00;99075.59;5092776;28;20086;-72
2022/04/13 01:43:45;;;;;;;7.07;5.20;;;;;;;11.55;48.81;99072.34;5059402;28;20562;-73
2022/04/13 01:46:11;;;;;;;6.72;5.15;;;;;;;11.49;48.86;99069.56;5094037;28;20040;-74
2022/04/13 01:48:37;;;;;;;7.18;5.65;;;;;;;11.51;48.74;99065.75;5092874;28;20160;-73
2022/04/13 01:51:03;;;;;;;8.10;5.53;;;;;;;11.53;48.74;99065.56;5075185;28;20046;-72
2022/04/13 01:53:29;;;;;;;8.05;5.57;;;;;;;11.53;48.74;99062.91;5075531;28;20047;-72
2022/04/13 01:55:57;;;;;;;8.82;5.82;;;;;;;11.50;48.77;99069.41;5058905;28;20154;-72
2022/04/13 01:58:23;;;;;;;7.38;5.50;;;;;;;11.49;48.73;99064.25;5058992;28;20044;-72
2022/04/13 02:00:56;;;;;;;7.13;5.45;;;;;;;11.51;48.69;99063.09;5058686;28;20442;-72
2022/04/13 02:03:26;;;;;;;7.00;5.40;;;;;;;11.75;48.42;99070.06;5075619;28;20183;-72
2022/04/13 02:05:54;;;;;;;8.13;5.40;;;;;;;11.61;48.26;99076.97;5056796;28;20043;-71
2022/04/13 02:08:20;;;;;;;7.40;5.47;;;;;;;11.61;48.65;99092.06;5074092;28;20051;-70
2022/04/13 02:10:47;;;;;;;8.48;5.68;;;;;;;11.54;48.66;99078.69;5106860;28;20132;-72
2022/04/13 02:13:13;;;;;;;6.30;5.10;;;;;;;11.59;48.54;99080.81;5060038;28;20047;-72
2022/04/13 02:15:40;;;;;;;6.38;5.07;;;;;;;11.48;48.58;99083.88;5077848;28;20511;-71
2022/04/13 02:18:06;;;;;;;6.63;5.35;;;;;;;11.45;48.55;99089.56;5112333;28;20052;-72
2022/04/13 02:20:33;;;;;;;8.70;5.07;;;;;;;11.51;48.41;99089.69;5078580;28;20412;-72
2022/04/13 02:23:01;;;;;;;7.80;5.93;;;;;;;11.45;48.63;99086.91;5079632;28;20043;-73
2022/04/13 02:25:29;;;;;;;7.15;5.45;;;;;;;11.49;48.71;99090.84;5113645;27;20075;-72
2022/04/13 02:27:54;;;;;;;7.43;5.47;;;;;;;11.45;48.58;99094.88;5061512;28;20611;-71
2022/04/13 02:30:21;;;;;;;8.60;5.43;;;;;;;11.43;48.60;99095.06;5061266;28;20051;-72
2022/04/13 02:32:46;;;;;;;6.88;5.55;;;;;;;11.37;48.60;99106.38;5093950;28;20040;-72
2022/04/13 02:35:13;;;;;;;8.38;5.38;;;;;;;11.43;48.71;99103.03;5102113;28;20051;-71
2022/04/13 02:37:40;;;;;;;7.95;5.38;;;;;;;11.36;48.65;99101.25;5061157;28;20039;-72
2022/04/13 02:40:07;;;;;;;7.10;5.13;;;;;;;11.35;49.04;99103.06;5111260;28;20051;-72
2022/04/13 02:42:34;;;;;;;7.45;5.45;;;;;;;11.32;48.87;99110.56;5077292;28;20036;-73
2022/04/13 02:45:01;;;;;;;7.57;5.70;;;;;;;11.34;49.24;99105.91;5077978;28;20057;-72
2022/04/13 02:47:28;;;;;;;9.00;5.70;;;;;;;11.08;49.21;99097.41;5094540;28;20044;-70
2022/04/13 02:49:55;;;;;;;8.43;5.38;;;;;;;11.22;49.25;99115.28;5061014;28;20047;-73
2022/04/13 02:52:22;;;;;;;8.68;5.60;;;;;;;11.19;49.03;99097.03;5077036;28;20044;-72
2022/04/13 02:54:48;;;;;;;9.32;5.13;;;;;;;11.15;49.21;99109.00;5077683;28;20537;-71
2022/04/13 02:57:13;;;;;;;5.78;5.18;;;;;;;11.13;49.17;99119.81;5077410;28;20059;-71
2022/04/13 02:59:40;;;;;;;6.45;5.07;;;;;;;11.06;49.49;99121.50;5094393;28;20981;-71
2022/04/13 03:02:07;;;;;;;6.65;4.80;;;;;;;11.06;49.33;99126.00;5093096;28;20134;-73
2022/04/13 03:04:33;;;;;;;7.10;5.00;;;;;;;11.13;49.30;99127.78;5060639;28;20051;-68
2022/04/13 03:06:59;;;;;;;6.68;4.85;;;;;;;11.10;49.47;99127.31;5060671;28;20048;-70
2022/04/13 03:09:25;;;;;;;6.18;4.80;;;;;;;11.14;49.12;99124.13;5094240;28;20358;-70
2022/04/13 03:11:51;;;;;;;10.30;5.38;;;;;;;11.12;49.20;99135.91;5059568;28;20504;-75
2022/04/13 03:14:18;;;;;;;6.82;4.97;;;;;;;11.17;49.07;99129.09;5077157;28;20511;-74
2022/04/13 03:16:44;;;;;;;5.68;5.07;;;;;;;11.16;49.19;99134.59;5073106;28;20059;-73
2022/04/13 03:19:11;;;;;;;7.55;5.18;;;;;;;11.16;49.10;99139.91;5066793;28;20044;-72
2022/04/13 03:21:37;;;;;;;7.20;5.32;;;;;;;11.14;49.21;99140.09;5065790;28;20044;-72
2022/04/13 03:24:04;;;;;;;11.32;5.20;;;;;;;11.22;48.72;99147.19;5056651;28;20054;-71
2022/04/13 03:26:30;;;;;;;13.48;5.00;;;;;;;11.16;49.01;99147.88;5072749;28;20068;-71
2022/04/13 03:28:58;;;;;;;8.30;4.80;;;;;;;10.93;48.93;99115.91;5090329;28;20047;-69
2022/04/13 03:31:24;;;;;;;6.65;4.85;;;;;;;11.13;48.93;99137.59;5072309;28;20044;-72
2022/04/13 03:33:51;;;;;;;5.30;4.68;;;;;;;11.24;48.67;99145.19;5075872;28;20051;-71
2022/04/13 03:36:18;;;;;;;7.03;5.38;;;;;;;11.20;48.70;99155.34;5092730;28;20050;-71
2022/04/13 03:38:44;;;;;;;6.00;4.85;;;;;;;11.27;48.76;99147.50;5076641;28;20039;-73
2022/04/13 03:41:11;;;;;;;7.45;5.10;;;;;;;11.25;48.50;99142.34;5090892;28;20595;-72
2022/04/13 03:43:39;;;;;;;4.93;4.28;;;;;;;11.32;48.35;99147.78;5073303;28;20040;-71
2022/04/13 03:46:06;;;;;;;7.93;4.88;;;;;;;11.43;48.36;99150.88;5092643;28;20051;-71
2022/04/13 03:48:32;;;;;;;6.25;4.60;;;;;;;11.37;48.28;99156.91;5075107;28;20361;-71
2022/04/13 03:50:59;;;;;;;6.38;4.28;;;;;;;11.41;48.08;99157.38;5073525;28;20040;-70
2022/04/13 03:53:30;;;;;;;5.38;4.55;;;;;;;11.49;48.29;99159.97;5076814;28;20039;-71
2022/04/13 03:55:56;;;;;;;5.85;4.40;;;;;;;11.45;48.24;99156.88;5076515;28;20570;-71
2022/04/13 03:58:22;;;;;;;6.68;4.32;;;;;;;11.53;48.08;99161.31;5057269;28;20032;-73
2022/04/13 04:00:48;;;;;;;8.95;5.00;;;;;;;11.51;48.06;99158.81;5072323;28;20459;-71
2022/04/13 04:03:14;;;;;;;4.55;3.90;;;;;;;11.60;48.00;99165.75;5053987;28;20048;-72
2022/04/13 04:05:41;;;;;;;5.13;4.20;;;;;;;11.66;47.51;99167.72;5070124;28;20070;-74
2022/04/13 04:08:06;;;;;;;7.15;4.75;;;;;;;11.68;47.68;99170.22;5058350;28;20126;-74
2022/04/13 04:10:33;;;;;;;5.10;4.20;;;;;;;11.79;47.32;99173.28;5058369;28;20409;-75
2022/04/13 04:12:59;;;;;;;9.38;4.50;;;;;;;11.81;46.94;99168.63;5072087;28;20044;-75
2022/04/13 04:15:25;;;;;;;6.43;4.55;;;;;;;11.82;47.31;99164.94;5039491;28;20131;-75
2022/04/13 04:17:51;;;;;;;10.40;4.95;;;;;;;11.86;47.16;99168.09;5056047;28;20138;-75
2022/04/13 04:20:17;;;;;;;6.57;5.13;;;;;;;11.95;46.87;99163.53;5056434;28;20047;-75
2022/04/13 04:22:44;;;;;;;5.85;5.05;;;;;;;11.91;46.79;99165.72;5039630;28;20078;-75
2022/04/13 04:25:10;;;;;;;6.53;4.95;;;;;;;11.93;46.57;99161.88;5056029;28;20083;-76
2022/04/13 04:27:37;;;;;;;5.40;4.72;;;;;;;11.99;46.56;99173.66;5072819;28;20492;-76
2022/04/13 04:30:03;;;;;;;8.00;5.10;;;;;;;12.02;46.77;99167.97;5058536;28;20052;-75
2022/04/13 04:32:30;;;;;;;9.90;4.90;;;;;;;11.98;46.58;99181.81;5056070;28;20211;-76
2022/04/13 04:34:56;;;;;;;7.95;5.40;;;;;;;11.98;46.64;99176.50;5055011;28;20040;-76
2022/04/13 04:37:22;;;;;;;7.28;5.30;;;;;;;12.03;46.39;99174.94;5056157;28;20094;-78
2022/04/13 04:39:48;;;;;;;7.22;4.97;;;;;;;12.11;46.37;99180.22;5055721;28;20074;-78
2022/04/13 04:42:14;;;;;;;11.27;4.90;;;;;;;12.09;46.35;99184.88;5070180;28;20063;-72
2022/04/13 04:44:40;;;;;;;6.38;4.80;;;;;;;12.12;46.17;99189.00;5038095;28;20048;-74
2022/04/13 04:47:07;;;;;;;8.10;4.63;;;;;;;12.28;46.10;99184.41;5044496;28;20047;-75
2022/04/13 04:49:34;;;;;;;5.90;4.38;;;;;;;12.28;45.88;99187.06;5038494;28;20553;-75
2022/04/13 04:52:00;;;;;;;6.07;4.05;;;;;;;12.13;46.17;99186.16;5072357;28;20048;-76
2022/04/13 04:54:26;;;;;;;6.30;3.95;;;;;;;12.23;45.85;99188.59;5038906;28;20078;-74
2022/04/13 04:56:53;;;;;;;4.32;3.60;;;;;;;12.21;45.93;99186.09;5056127;28;20129;-75
2022/04/13 04:59:19;;;;;;;5.47;4.18;;;;;;;12.19;45.81;99193.47;5055645;28;20047;-74
2022/04/13 05:01:45;;;;;;;6.80;3.92;;;;;;;12.28;46.12;99186.22;5055498;28;20047;-74
2022/04/13 05:04:12;;;;;;;9.02;4.80;;;;;;;12.33;45.82;99192.66;5039019;28;20090;-73
2022/04/13 05:06:40;;;;;;;4.47;3.72;;;;;;;12.45;45.59;99198.38;5039393;28;20044;-75
2022/04/13 05:09:07;;;;;;;4.50;3.75;;;;;;;12.52;45.08;99181.50;5056384;28;20130;-72
2022/04/13 05:11:33;;;;;;;9.90;4.18;;;;;;;12.70;45.00;99191.81;5072384;28;20063;-73
2022/04/13 05:13:59;;;;;;;6.25;3.88;;;;;;;12.75;44.94;99200.06;5072131;28;20047;-73
2022/04/13 05:16:26;;;;;;;10.13;4.13;;;;;;;12.83;44.42;99200.84;5072156;28;20047;-77
2022/04/13 05:18:52;;;;;;;8.52;3.83;;;;;;;12.85;44.45;99200.66;5055165;28;20627;-73
2022/04/13 05:21:18;;;;;;;6.55;3.45;;;;;;;12.91;44.61;99200.75;5072181;28;20052;-73
2022/04/13 05:23:45;;;;;;;8.27;3.90;;;;;;;13.06;44.15;99206.09;5039327;28;20036;-73
2022/04/13 05:26:11;;;;;;;5.63;4.15;;;;;;;13.11;43.74;99204.56;5054125;28;20160;-73
2022/04/13 05:28:37;;;;;;;6.25;3.88;;;;;;;13.08;43.94;99209.41;5053304;28;20131;-74
2022/04/13 05:31:08;;;;;;;11.77;3.75;;;;;;;13.09;44.33;99219.91;5054029;28;20085;-73
2022/04/13 05:33:34;;;;;;;4.75;3.72;;;;;;;13.14;43.72;99225.50;5071651;28;20372;-73
2022/04/13 05:36:00;;;;;;;6.28;3.75;;;;;;;13.16;43.50;99231.47;5036351;28;20046;-73
2022/04/13 05:38:27;;;;;;;7.50;3.83;;;;;;;13.17;43.56;99229.63;5055317;28;20051;-74
2022/04/13 05:41:02;;;;;;;8.25;4.07;;;;;;;13.20;43.67;99235.44;5072821;28;20036;-73
2022/04/13 05:43:33;;;;;;;10.05;4.25;;;;;;;13.20;43.68;99227.44;5039211;28;20032;-73
2022/04/13 05:45:59;;;;;;;21.35;5.93;;;;;;;13.26;43.50;99240.03;5074650;28;20066;-73
2022/04/13 05:48:26;;;;;;;10.00;3.83;;;;;;;13.34;43.48;99242.63;5059240;28;20075;-73
2022/04/13 05:50:52;;;;;;;6.10;4.40;;;;;;;13.28;43.40;99235.31;5042537;28;20040;-72
2022/04/13 05:53:19;;;;;;;6.80;3.90;;;;;;;13.37;43.26;99249.41;5075939;28;20085;-73
2022/04/13 05:55:55;;;;;;;9.15;4.00;;;;;;;13.39;43.11;99240.19;5092751;28;20052;-73
2022/04/13 05:58:26;;;;;;;7.78;4.03;;;;;;;13.75;42.71;99244.72;5059388;28;20051;-73
2022/04/13 06:00:53;;;;;;;7.22;4.10;;;;;;;13.64;42.85;99234.56;5075811;28;20043;-73
2022/04/13 06:03:22;;;;;;;6.07;3.95;;;;;;;13.58;42.94;99239.63;5058665;28;20054;-73
2022/04/13 06:05:48;;;;;;;9.35;4.60;;;;;;;13.53;42.65;99242.03;5059180;28;20130;-73
2022/04/13 06:08:14;;;;;;;7.57;4.22;;;;;;;13.61;42.45;99246.44;5058556;28;20047;-73
2022/04/13 06:10:40;;;;;;;7.20;3.80;;;;;;;13.71;42.29;99248.81;5075434;28;20067;-73
2022/04/13 06:13:06;;;;;;;8.60;4.82;;;;;;;13.81;42.15;99252.81;5075075;28;20083;-73
2022/04/13 06:15:32;;;;;;;6.80;4.00;;;;;;;13.68;42.14;99251.84;5058393;28;20040;-72
2022/04/13 06:17:59;;;;;;;6.20;4.30;;;;;;;13.62;42.56;99255.28;5058502;28;20044;-73
2022/04/13 06:20:25;;;;;;;10.50;4.22;;;;;;;13.45;42.81;99263.47;5058715;28;20040;-73
2022/04/13 06:22:54;;;;;;;7.10;4.28;;;;;;;13.51;42.78;99265.38;5058153;28;20032;-73
2022/04/13 06:25:20;;;;;;;10.05;5.10;;;;;;;13.45;42.66;99251.97;5042142;28;20044;-73
2022/04/13 06:27:47;;;;;;;9.88;4.93;;;;;;;13.57;42.71;99263.84;5041327;28;20052;-72
2022/04/13 06:30:13;;;;;;;13.40;5.28;;;;;;;13.51;42.70;99267.25;5074725;28;20103;-73
2022/04/13 06:32:44;;;;;;;10.13;5.13;;;;;;;13.72;42.64;99261.97;5058169;28;20044;-73
2022/04/13 06:35:11;;;;;;;;;;;;;;;13.96;42.10;99268.81;5075165;28;20054;-73
2022/04/13 06:37:42;;;;;;;18.80;5.40;;;;;;;13.85;42.16;99250.63;5041538;28;20304;-73
2022/04/13 06:40:08;;;;;;;9.90;5.25;;;;;;;14.01;41.82;99283.25;5074908;28;20413;-72
2022/04/13 06:42:37;;;;;;;18.08;5.80;;;;;;;14.20;41.42;99296.00;5042359;28;20052;-72
2022/04/13 06:45:05;;;;;;;10.52;5.25;;;;;;;14.25;41.37;99284.78;5074588;28;20047;-73
2022/04/13 06:47:31;;;;;;;12.75;5.95;;;;;;;14.36;40.91;99295.78;5091344;28;20040;-73
2022/04/13 06:49:57;;;;;;;13.85;5.25;;;;;;;14.36;40.73;99278.94;5057951;28;20146;-73
2022/04/13 06:52:24;;;;;;;12.85;5.50;;;;;;;14.71;40.28;99294.06;5057863;28;20078;-72
2022/04/13 06:54:50;;;;;;;11.80;5.90;;;;;;;14.62;40.49;99297.91;5041131;28;20139;-73
2022/04/13 06:57:17;;;;;;;8.25;5.15;;;;;;;14.69;40.14;99296.94;5057187;28;20129;-73
2022/04/13 06:59:43;;;;;;;8.77;5.22;;;;;;;14.70;39.99;99297.75;5041528;28;20047;-72
2022/04/13 07:02:12;;;;;;;18.38;5.22;;;;;;;14.74;39.97;99312.38;5057747;28;20044;-72
2022/04/13 07:04:39;;;;;;;10.75;5.38;;;;;;;14.84;40.13;99304.84;5075116;28;20105;-73
2022/04/13 07:07:05;;;;;;;12.07;5.43;;;;;;;15.00;40.21;99307.25;5057436;28;20092;-73
2022/04/13 07:09:31;;;;;;;11.48;5.63;;;;;;;15.08;39.71;99301.78;5057823;28;20105;-72
2022/04/13 07:11:56;;;;;;;9.77;5.15;;;;;;;15.30;39.46;99305.22;5057673;28;20496;-72
2022/04/13 07:14:22;;;;;;;9.07;5.30;;;;;;;15.47;38.51;99304.72;5057115;28;20051;-72
2022/04/13 07:16:54;;;;;;;9.13;4.82;;;;;;;15.80;38.23;99305.75;5041757;28;20201;-72
2022/04/13 07:19:56;;;;;;;8.15;5.63;;;;;;;15.98;37.79;99323.94;5045733;28;20063;-73
2022/04/13 07:22:48;;;;;;;12.68;5.43;;;;;;;15.90;37.63;99303.50;5044976;28;20055;-72
2022/04/13 07:25:15;;;;;;;11.05;5.35;;;;;;;15.92;37.40;99327.41;5073757;28;20421;-72
2022/04/13 07:27:41;;;;;;;8.70;5.13;;;;;;;15.56;37.24;99275.97;5056818;28;20081;-73
2022/04/13 07:30:08;;;;;;;9.13;5.55;;;;;;;16.02;37.36;99323.31;5090214;28;20044;-74
2022/04/13 07:32:33;;;;;;;14.32;5.57;;;;;;;16.01;37.07;99319.00;5056897;28;20485;-75
2022/04/13 07:34:59;;;;;;;11.00;5.00;;;;;;;16.06;36.90;99329.94;5056900;28;20052;-74
2022/04/13 07:37:26;;;;;;;17.17;5.47;;;;;;;16.12;36.54;99331.81;5056723;28;20039;-74
2022/04/13 07:39:52;;;;;;;10.93;5.38;;;;;;;16.16;36.35;99322.34;5040044;28;20040;-74
2022/04/13 07:42:26;;;;;;;15.07;5.82;;;;;;;16.35;36.23;99323.44;5073281;28;20446;-74
2022/04/13 07:44:52;;;;;;;11.23;5.85;;;;;;;16.12;36.51;99326.47;5073609;28;20105;-73
2022/04/13 07:47:19;;;;;;;9.10;5.18;;;;;;;16.05;36.84;99322.91;5056675;28;20414;-74
2022/04/13 07:49:46;;;;;;;12.23;5.28;;;;;;;15.98;36.67;99330.13;5056781;28;20039;-73
2022/04/13 07:52:13;;;;;;;16.27;6.20;;;;;;;16.10;36.74;99335.72;5073457;28;20386;-74
2022/04/13 07:54:41;;;;;;;15.45;8.07;;;;;;;16.03;36.62;99338.38;5039921;28;20059;-73
2022/04/13 07:57:07;;;;;;;18.38;8.90;;;;;;;15.95;36.58;99335.03;5056542;28;20430;-74
2022/04/13 07:59:33;;;;;;;19.38;9.05;;;;;;;15.95;36.56;99341.22;5056877;28;20073;-73
2022/04/13 08:01:58;;;;;;;15.60;6.32;;;;;;;16.02;36.53;99341.28;5057328;28;20513;-74
2022/04/13 08:04:24;;;;;;;13.57;7.60;;;;;;;15.92;36.57;99352.34;5056735;28;20143;-74
2022/04/13 08:06:50;;;;;;;18.98;7.57;;;;;;;15.71;36.79;99347.09;5056413;28;20143;-74
2022/04/13 08:09:16;;;;;;;22.65;10.80;;;;;;;15.66;37.07;99340.66;5038757;28;20043;-74
2022/04/13 08:11:42;;;;;;;13.90;6.45;;;;;;;15.73;36.88;99341.53;5056330;28;20051;-74
2022/04/13 08:14:10;;;;;;;24.27;11.57;;;;;;;15.81;37.05;99339.50;5072932;28;20529;-74
2022/04/13 08:16:36;;;;;;;23.58;11.50;;;;;;;15.99;36.60;99344.34;5056386;28;20054;-74
2022/04/13 08:19:05;;;;;;;25.65;13.15;;;;;;;16.15;36.59;99352.84;5056530;28;20048;-74
2022/04/13 08:21:33;;;;;;;19.60;8.30;;;;;;;16.22;36.45;99351.00;5090458;28;20043;-73
2022/04/13 08:23:59;;;;;;;42.20;19.67;;;;;;;16.18;36.28;99328.34;5056241;28;20119;-74
2022/04/13 08:26:24;;;;;;;13.40;6.05;;;;;;;16.48;35.61;99348.44;5039880;28;20549;-74
2022/04/13 08:28:50;;;;;;;27.40;9.20;;;;;;;16.68;35.52;99356.56;5056657;28;20039;-74
2022/04/13 08:31:18;;;;;;;17.48;7.88;;;;;;;16.84;34.83;99348.09;5056246;28;20421;-74
2022/04/13 08:33:43;;;;;;;14.32;6.65;;;;;;;17.02;34.78;99352.88;5089904;28;20101;-74
2022/04/13 08:36:09;;;;;;;16.45;7.53;;;;;;;17.31;34.36;99344.41;5072741;28;20459;-74
2022/04/13 08:38:36;;;;;;;14.65;6.75;;;;;;;17.47;34.05;99352.88;5056279;28;20555;-74
2022/04/13 08:41:29;;;;;;;17.48;6.57;;;;;;;18.06;33.17;99358.09;5073392;28;20055;-74
2022/04/13 08:44:09;;;;;;;15.52;5.72;;;;;;;18.32;32.62;99363.34;5067291;28;20048;-74
2022/04/13 08:46:37;;;;;;;15.85;5.50;;;;;;;18.06;32.88;99350.88;5056364;28;20048;-74
2022/04/13 08:49:04;;;;;;;17.73;5.70;;;;;;;17.89;33.00;99355.06;5056250;28;20097;-73
2022/04/13 08:51:32;;;;;;;10.32;5.88;;;;;;;17.73;33.20;99342.06;5072861;28;20048;-73
2022/04/13 08:54:14;;;;;;;8.75;5.22;;;;;;;17.79;33.27;99341.22;5055902;28;20040;-73
2022/04/13 08:56:42;;;;;;;11.38;6.15;;;;;;;17.62;33.55;99352.66;5089788;28;20390;-73
2022/04/13 08:59:27;;;;;;;17.55;6.10;;;;;;;17.70;33.59;99353.25;5072639;28;20044;-76
2022/04/13 09:01:53;;;;;;;13.07;5.97;;;;;;;17.37;33.88;99340.88;5089397;28;20052;-74
2022/04/13 09:04:20;;;;;;;11.20;6.05;;;;;;;17.75;33.59;99353.44;5106209;28;20092;-74
2022/04/13 09:06:49;;;;;;;13.18;6.15;;;;;;;17.64;33.38;99362.13;5073020;28;20077;-73
2022/04/13 09:09:25;;;;;;;15.05;6.70;;;;;;;17.74;33.57;99348.28;5072758;28;20126;-74
2022/04/13 09:11:51;;;;;;;14.50;6.47;;;;;;;17.48;33.85;99351.03;5089198;28;20043;-75
2022/04/13 09:14:18;;;;;;;20.40;7.13;;;;;;;17.50;33.77;99348.94;5055767;28;20044;-74
2022/04/13 09:16:44;;;;;;;13.90;6.25;;;;;;;17.38;34.10;99350.56;5055906;28;20048;-74
2022/04/13 09:19:10;;;;;;;13.43;6.32;;;;;;;17.13;33.88;99312.81;5056113;28;20039;-75
2022/04/13 09:21:36;;;;;;;14.18;6.50;;;;;;;17.29;33.95;99349.97;5059543;28;20082;-73
2022/04/13 09:24:03;;;;;;;13.75;6.32;;;;;;;17.41;34.32;99359.03;5064994;28;20039;-75
2022/04/13 09:26:29;;;;;;;11.35;6.38;;;;;;;17.40;34.26;99354.72;5061141;28;20128;-74
2022/04/13 09:28:55;;;;;;;17.73;6.40;;;;;;;17.39;34.29;99357.63;5092064;28;20051;-75
2022/04/13 09:31:21;;;;;;;13.68;6.35;;;;;;;17.43;33.96;99350.78;5057880;28;20044;-77
2022/04/13 09:33:49;;;;;;;13.63;6.30;;;;;;;17.50;33.88;99360.50;5058166;28;20043;-75
2022/04/13 09:36:14;;;;;;;14.10;6.45;;;;;;;17.51;33.74;99358.66;5057677;28;20044;-74
2022/04/13 09:38:40;;;;;;;19.00;6.05;;;;;;;17.55;33.97;99362.56;5073363;28;20688;-75
2022/04/13 09:41:08;;;;;;;21.20;6.65;;;;;;;17.54;34.01;99348.34;5057761;28;20062;-75
2022/04/13 09:43:34;;;;;;;16.20;6.35;;;;;;;17.65;33.90;99365.66;5074523;28;20028;-75
2022/04/13 09:46:00;;;;;;;13.15;6.70;;;;;;;17.56;33.92;99365.03;5040979;28;20054;-77
2022/04/13 09:48:27;;;;;;;12.77;6.65;;;;;;;17.46;34.23;99361.97;5058035;28;20035;-74
2022/04/13 09:50:57;;;;;;;22.23;7.22;;;;;;;17.49;34.40;99363.41;5057643;28;20134;-77
2022/04/13 09:53:25;;;;;;;19.67;7.50;;;;;;;17.36;34.63;99360.72;5058414;28;20505;-77
2022/04/13 09:55:59;;;;;;;13.18;6.60;;;;;;;17.53;34.17;99359.28;5041857;28;20043;-77
2022/04/13 09:58:26;;;;;;;13.32;6.88;;;;;;;17.41;34.41;99356.38;5091365;28;20044;-76
2022/04/13 10:00:54;;;;;;;13.40;7.18;;;;;;;17.47;34.41;99371.66;5074495;28;20044;-70
2022/04/13 10:03:22;;;;;;;16.92;6.97;;;;;;;17.35;34.41;99364.41;5040429;28;20071;-75
2022/04/13 10:05:52;;;;;;;16.33;7.47;;;;;;;17.25;34.61;99372.06;5077718;28;20044;-74
2022/04/13 10:08:22;;;;;;;18.20;6.72;;;;;;;16.99;34.94;99377.44;5074520;28;20529;-75
2022/04/13 10:10:52;;;;;;;21.20;7.43;;;;;;;16.74;35.52;99375.31;5091129;28;20090;-76
2022/04/13 10:13:37;;;;;;;18.50;7.50;;;;;;;16.55;35.76;99357.34;5091439;28;20131;-76
2022/04/13 10:16:10;;;;;;;11.85;6.85;;;;;;;16.49;36.30;99379.59;5081329;28;20135;-74
2022/04/13 10:18:55;;;;;;;14.73;6.75;;;;;;;16.59;37.18;99381.91;5044425;28;20127;-74
2022/04/13 10:21:49;;;;;;;19.45;7.38;;;;;;;16.59;36.87;99385.41;5040352;28;20048;-76
2022/04/13 10:24:18;;;;;;;13.38;6.97;;;;;;;16.40;36.80;99396.88;5040766;28;20031;-76
2022/04/13 10:27:15;;;;;;;15.45;6.88;;;;;;;16.38;36.80;99390.88;5056550;28;20449;-76
2022/04/13 10:29:43;;;;;;;17.70;7.65;;;;;;;16.25;36.81;99373.94;5041961;28;20047;-76
2022/04/13 10:32:17;;;;;;;16.23;7.28;;;;;;;16.27;36.88;99377.22;5040769;28;20083;-76
2022/04/13 10:34:44;;;;;;;13.35;6.85;;;;;;;16.04;37.21;99376.69;5074204;28;20071;-76
2022/04/13 10:37:12;;;;;;;15.23;6.93;;;;;;;16.03;37.22;99375.91;5057574;28;20036;-76
2022/04/13 10:39:38;;;;;;;14.57;7.00;;;;;;;15.97;37.05;99383.88;5101599;28;20143;-76
2022/04/13 10:42:05;;;;;;;15.00;6.70;;;;;;;15.88;37.41;99371.69;5072321;28;20086;-77
2022/04/13 10:44:41;;;;;;;14.85;6.68;;;;;;;15.91;37.62;99385.53;5057442;28;20856;-77
2022/04/13 10:47:08;;;;;;;14.95;6.95;;;;;;;15.76;37.84;99382.13;5092160;28;20051;-78
2022/04/13 10:49:56;;;;;;;13.50;7.10;;;;;;;15.97;37.47;99374.00;5077972;28;20058;-77
2022/04/13 10:52:39;;;;;;;17.70;6.38;;;;;;;15.83;37.48;99390.19;5094046;28;20607;-76
2022/04/13 10:55:09;;;;;;;17.25;6.90;;;;;;;15.71;37.80;99376.53;5080892;28;20092;-77
2022/04/13 10:57:37;;;;;;;15.85;6.25;;;;;;;15.63;37.93;99390.09;5062711;28;20126;-77
2022/04/13 11:00:05;;;;;;;16.02;6.88;;;;;;;15.61;37.97;99385.94;5059038;28;20077;-76
2022/04/13 11:03:03;;;;;;;11.32;5.97;;;;;;;15.72;37.48;99372.00;5068477;28;20618;-76
2022/04/13 11:05:33;;;;;;;14.15;5.55;;;;;;;15.67;37.66;99393.22;5110436;28;20393;-77
2022/04/13 11:08:14;;;;;;;13.53;6.00;;;;;;;15.89;37.51;99400.94;5076874;28;20535;-77
2022/04/13 11:10:42;;;;;;;9.85;5.85;;;;;;;15.76;37.62;99392.81;5084405;28;20805;-76
2022/04/13 11:13:09;;;;;;;16.90;6.25;;;;;;;15.65;37.72;99390.72;5071897;28;20592;-77
2022/04/13 11:16:11;;;;;;;14.90;6.00;;;;;;;15.74;37.79;99402.94;5072986;28;20527;-77
2022/04/13 11:18:37;;;;;;;10.90;6.05;;;;;;;15.43;38.15;99397.16;5054041;28;20048;-76
2022/04/13 11:21:05;;;;;;;11.23;5.57;;;;;;;15.38;38.06;99374.66;5055736;28;20048;-77
2022/04/13 11:23:54;;;;;;;11.50;5.35;;;;;;;15.61;38.10;99404.66;5073484;28;20052;-76
2022/04/13 11:26:36;;;;;;;12.95;6.00;;;;;;;15.46;38.27;99404.78;5092603;28;20058;-76
2022/04/13 11:29:13;;;;;;;16.65;6.00;;;;;;;15.41;38.31;99404.53;5089908;28;20044;-76
2022/04/13 11:32:01;;;;;;;22.08;5.93;;;;;;;15.46;38.43;99406.63;5091342;28;20052;-77
2022/04/13 11:34:37;;;;;;;10.50;5.90;;;;;;;15.57;38.35;99401.56;5055689;28;20070;-78